Time;durP1;ratioP1;P1;durP2;ratioP2;P2;SDS_P1;SDS_P2;PMS_P1;PMS_P2;Temp;Humidity;BMP_temperature;BMP_pressure;BME280_temperature;BME280_humidity;BME280_pressure;Samples;Min_cycle;Max_cycle;Signal;HPM_P1;HPM_P2
2023/11/18 00:01:03;;;;;;;10.80;5.50;;;;;;;9.03;100.00;101102.34;5086705;28;20070;-72
2023/11/18 00:03:48;;;;;;;7.80;4.15;;;;;;;9.03;100.00;101094.03;5096205;28;20051;-72
2023/11/18 00:06:32;;;;;;;8.85;4.38;;;;;;;9.03;100.00;101087.66;5096787;28;20043;-72
2023/11/18 00:09:16;;;;;;;8.25;4.72;;;;;;;9.04;100.00;101086.53;5085315;28;20116;-72
2023/11/18 00:12:01;;;;;;;11.20;4.75;;;;;;;9.03;100.00;101085.72;5097412;28;20120;-72
2023/11/18 00:14:45;;;;;;;7.82;4.30;;;;;;;9.04;100.00;101075.47;5083811;28;20094;-72
2023/11/18 00:17:32;;;;;;;9.23;4.45;;;;;;;9.04;100.00;101073.53;5085578;28;20100;-72
2023/11/18 00:20:16;;;;;;;10.18;4.35;;;;;;;9.07;100.00;101075.75;5091108;28;20075;-72
2023/11/18 00:23:04;;;;;;;8.52;3.90;;;;;;;9.06;100.00;101068.56;5077645;28;20511;-72
2023/11/18 00:25:48;;;;;;;7.07;4.18;;;;;;;9.06;100.00;101057.47;5077435;28;20047;-72
2023/11/18 00:28:32;;;;;;;15.23;4.10;;;;;;;9.06;100.00;101049.16;5089524;28;20404;-72
2023/11/18 00:31:17;;;;;;;8.10;3.90;;;;;;;9.06;100.00;101038.06;5090333;28;20093;-72
2023/11/18 00:34:01;;;;;;;10.38;5.13;;;;;;;9.07;100.00;101025.03;5070282;28;20043;-72
2023/11/18 00:36:45;;;;;;;8.65;4.63;;;;;;;9.09;100.00;101020.06;5083396;28;20077;-72
2023/11/18 00:39:29;;;;;;;11.65;4.72;;;;;;;9.08;100.00;101019.25;5092597;28;20503;-72
2023/11/18 00:42:13;;;;;;;10.30;4.57;;;;;;;9.08;100.00;101032.25;5083186;28;20070;-72
2023/11/18 00:44:57;;;;;;;11.73;4.55;;;;;;;9.10;100.00;101030.88;5077313;28;20055;-72
2023/11/18 00:47:41;;;;;;;8.35;4.10;;;;;;;9.09;100.00;101029.22;5077026;28;20043;-72
2023/11/18 00:50:25;;;;;;;10.30;4.45;;;;;;;9.09;100.00;101031.97;5077076;28;20067;-73
2023/11/18 00:53:10;;;;;;;9.68;5.13;;;;;;;9.11;100.00;101031.69;5076432;28;20597;-72
2023/11/18 00:55:54;;;;;;;15.82;5.45;;;;;;;9.12;100.00;101025.91;5083463;28;20035;-72
2023/11/18 00:58:40;;;;;;;9.32;4.78;;;;;;;9.12;100.00;101036.97;5080776;28;20583;-72
2023/11/18 01:01:24;;;;;;;8.95;4.90;;;;;;;9.13;100.00;101030.31;5076875;28;20170;-72
2023/11/18 01:04:08;;;;;;;7.30;5.03;;;;;;;9.13;100.00;101010.91;5096594;28;20117;-72
2023/11/18 01:06:53;;;;;;;9.52;5.10;;;;;;;9.14;100.00;101009.84;5094766;28;20186;-72
2023/11/18 01:09:38;;;;;;;7.50;4.63;;;;;;;9.16;100.00;101024.25;5077171;28;20119;-72
2023/11/18 01:12:22;;;;;;;8.80;4.85;;;;;;;9.16;100.00;101029.81;5089369;28;20507;-72
2023/11/18 01:15:07;;;;;;;7.85;4.55;;;;;;;9.18;100.00;101032.28;5077151;28;20048;-72
2023/11/18 01:17:51;;;;;;;7.20;4.18;;;;;;;9.17;100.00;101027.88;5088040;28;20538;-72
2023/11/18 01:20:37;;;;;;;6.03;3.78;;;;;;;9.16;100.00;101023.41;5085465;28;20044;-72
2023/11/18 01:23:21;;;;;;;10.55;3.38;;;;;;;9.21;100.00;101014.28;5078886;28;20598;-73
2023/11/18 01:26:05;;;;;;;6.72;3.78;;;;;;;9.22;100.00;101015.94;5078478;28;20040;-73
2023/11/18 01:28:49;;;;;;;7.60;3.10;;;;;;;9.22;100.00;101014.03;5086520;28;20370;-72
2023/11/18 01:31:33;;;;;;;5.35;3.00;;;;;;;9.22;100.00;101011.25;5094964;28;20043;-73
2023/11/18 01:34:21;;;;;;;7.05;3.00;;;;;;;9.24;100.00;101008.19;5081800;28;20038;-72
2023/11/18 01:37:07;;;;;;;7.60;2.97;;;;;;;9.25;100.00;100994.06;5085821;28;20387;-72
2023/11/18 01:39:51;;;;;;;6.50;3.00;;;;;;;9.24;100.00;101006.25;5094272;28;20129;-72
2023/11/18 01:42:36;;;;;;;6.70;2.90;;;;;;;9.26;100.00;101006.00;5079545;28;20380;-72
2023/11/18 01:45:21;;;;;;;5.70;3.00;;;;;;;9.26;100.00;101000.44;5075483;28;20465;-72
2023/11/18 01:48:05;;;;;;;10.52;3.67;;;;;;;9.28;100.00;100985.22;5085609;28;20585;-72
2023/11/18 01:50:49;;;;;;;7.88;3.10;;;;;;;9.28;100.00;100984.38;5066872;28;20384;-72
2023/11/18 01:53:35;;;;;;;6.00;2.67;;;;;;;9.27;100.00;100972.44;5080116;28;20506;-72
2023/11/18 01:56:21;;;;;;;7.28;2.85;;;;;;;9.32;100.00;100982.72;5074932;28;20090;-72
2023/11/18 01:59:06;;;;;;;6.78;3.15;;;;;;;9.31;100.00;100979.13;5099927;28;20051;-72
2023/11/18 02:01:53;;;;;;;8.63;3.00;;;;;;;9.32;100.00;100972.44;5083204;28;20607;-73
2023/11/18 02:04:37;;;;;;;6.97;2.72;;;;;;;9.35;100.00;100971.06;5099951;28;20040;-72
2023/11/18 02:07:22;;;;;;;8.85;3.13;;;;;;;9.34;100.00;100967.47;5093858;28;20455;-72
2023/11/18 02:10:08;;;;;;;6.22;3.08;;;;;;;9.36;100.00;100969.97;5081849;28;20071;-72
2023/11/18 02:13:20;;;;;;;6.72;3.22;;;;;;;9.37;100.00;100972.47;5099994;28;20058;-73
2023/11/18 02:16:04;;;;;;;6.30;2.65;;;;;;;9.39;100.00;100972.22;5082713;28;20055;-72
2023/11/18 02:18:49;;;;;;;6.15;3.03;;;;;;;9.41;100.00;100967.19;5092308;28;20123;-73
2023/11/18 02:21:33;;;;;;;9.45;3.70;;;;;;;9.40;100.00;100952.50;5074332;28;20067;-73
2023/11/18 02:24:28;;;;;;;7.65;3.63;;;;;;;9.42;100.00;100957.78;5084657;28;20038;-72
2023/11/18 02:27:12;;;;;;;9.05;4.03;;;;;;;9.42;100.00;100955.03;5084390;28;20090;-72
2023/11/18 02:29:56;;;;;;;7.10;3.53;;;;;;;9.42;100.00;100943.94;5099561;28;20101;-72
2023/11/18 02:33:11;;;;;;;7.75;4.10;;;;;;;9.44;100.00;100927.00;5080011;28;20030;-72
2023/11/18 02:36:00;;;;;;;11.48;4.10;;;;;;;9.43;100.00;100945.59;5098779;28;20127;-72
2023/11/18 02:38:47;;;;;;;8.23;4.10;;;;;;;9.46;100.00;100950.56;5076440;28;20039;-72
2023/11/18 02:41:31;;;;;;;9.10;4.82;;;;;;;9.46;100.00;100953.34;5075638;28;20044;-73
2023/11/18 02:44:17;;;;;;;14.68;4.95;;;;;;;9.49;100.00;100957.50;5077057;28;20085;-72
2023/11/18 02:47:01;;;;;;;13.85;5.90;;;;;;;9.49;100.00;100950.03;5071022;28;20042;-72
2023/11/18 02:49:48;;;;;;;15.07;5.75;;;;;;;9.50;100.00;100943.38;5056565;28;20039;-72
2023/11/18 02:52:35;;;;;;;15.15;5.82;;;;;;;9.51;100.00;100928.41;5092652;28;20091;-73
2023/11/18 02:55:24;;;;;;;8.50;5.93;;;;;;;9.50;100.00;100929.53;5080302;28;20075;-73
2023/11/18 02:58:08;;;;;;;8.40;5.30;;;;;;;9.52;100.00;100927.28;5086848;28;20086;-72
2023/11/18 03:00:53;;;;;;;11.43;5.90;;;;;;;9.53;100.00;100920.66;5085945;28;20549;-72
2023/11/18 03:03:37;;;;;;;12.65;6.60;;;;;;;9.54;100.00;100919.53;5096217;28;20066;-72
2023/11/18 03:06:21;;;;;;;8.63;6.05;;;;;;;9.53;100.00;100912.31;5099308;28;20104;-72
2023/11/18 03:09:07;;;;;;;14.35;6.20;;;;;;;9.55;100.00;100912.84;5078993;28;20040;-72
2023/11/18 03:11:51;;;;;;;11.70;6.40;;;;;;;9.57;100.00;100907.88;5091990;28;20058;-73
2023/11/18 03:14:35;;;;;;;10.38;5.85;;;;;;;9.57;100.00;100905.09;5078850;28;20090;-72
2023/11/18 03:17:20;;;;;;;9.85;6.47;;;;;;;9.57;100.00;100910.66;5085137;28;20105;-73
2023/11/18 03:20:11;;;;;;;11.63;5.55;;;;;;;9.59;100.00;100910.38;5094584;28;20451;-73
2023/11/18 03:22:55;;;;;;;12.88;5.82;;;;;;;9.59;100.00;100911.22;5078685;28;20043;-72
2023/11/18 03:25:39;;;;;;;10.48;5.40;;;;;;;9.57;100.00;100902.34;5058357;28;20036;-72
2023/11/18 03:28:23;;;;;;;11.15;5.88;;;;;;;9.59;100.00;100883.47;5091170;28;20499;-73
2023/11/18 03:31:09;;;;;;;10.90;5.05;;;;;;;9.61;100.00;100885.97;5078176;28;20059;-73
2023/11/18 03:33:53;;;;;;;10.93;5.15;;;;;;;9.65;100.00;100883.47;5077729;28;20396;-73
2023/11/18 03:36:37;;;;;;;10.00;4.82;;;;;;;9.68;100.00;100874.59;5086097;28;20039;-73
2023/11/18 03:39:21;;;;;;;11.50;4.30;;;;;;;9.68;100.00;100863.50;5096796;28;20042;-73
2023/11/18 03:42:06;;;;;;;8.68;4.53;;;;;;;9.71;100.00;100857.41;5098141;28;20055;-73
2023/11/18 03:44:50;;;;;;;14.35;4.50;;;;;;;9.71;100.00;100868.50;5082840;28;20039;-73
2023/11/18 03:47:34;;;;;;;11.98;4.50;;;;;;;9.72;100.00;100845.19;5080041;28;20067;-73
2023/11/18 03:50:18;;;;;;;11.05;4.50;;;;;;;9.73;100.00;100853.25;5078111;28;20526;-73
2023/11/18 03:53:03;;;;;;;8.57;4.22;;;;;;;9.74;100.00;100840.19;5078150;28;20046;-72
2023/11/18 03:55:47;;;;;;;10.00;4.75;;;;;;;9.75;100.00;100837.16;5082770;28;20522;-72
2023/11/18 03:58:32;;;;;;;7.65;4.10;;;;;;;9.78;100.00;100841.31;5067409;28;20035;-72
2023/11/18 04:01:23;;;;;;;10.02;3.58;;;;;;;9.79;100.00;100852.09;5077584;28;20393;-73
2023/11/18 04:04:07;;;;;;;10.05;4.43;;;;;;;9.81;100.00;100851.84;5097406;28;20554;-72
2023/11/18 04:06:51;;;;;;;9.60;4.50;;;;;;;9.84;100.00;100842.97;5095633;28;20042;-73
2023/11/18 04:09:35;;;;;;;7.90;4.03;;;;;;;9.83;100.00;100844.91;5077536;28;20044;-72
2023/11/18 04:12:19;;;;;;;10.82;4.57;;;;;;;9.85;100.00;100848.22;5095951;28;20042;-73
2023/11/18 04:15:04;;;;;;;8.63;4.57;;;;;;;9.85;100.00;100831.56;5097478;28;20123;-73
2023/11/18 04:17:48;;;;;;;8.98;3.88;;;;;;;9.84;100.00;100818.81;5080776;28;20063;-72
2023/11/18 04:20:32;;;;;;;7.47;4.57;;;;;;;9.86;100.00;100799.09;5085820;28;20181;-72
2023/11/18 04:23:16;;;;;;;6.70;4.35;;;;;;;9.87;100.00;100781.34;5082177;28;20062;-73
2023/11/18 04:26:02;;;;;;;11.57;4.97;;;;;;;9.90;100.00;100783.56;5097866;28;20499;-72
2023/11/18 04:28:46;;;;;;;8.85;4.45;;;;;;;9.91;100.00;100809.34;5097403;28;20039;-73
2023/11/18 04:31:30;;;;;;;9.82;4.32;;;;;;;9.91;100.00;100835.16;5078669;28;20057;-72
2023/11/18 04:34:14;;;;;;;10.82;5.00;;;;;;;9.97;100.00;100834.06;5090752;28;20046;-73
2023/11/18 04:36:58;;;;;;;10.00;5.28;;;;;;;9.98;100.00;100832.09;5096192;28;20494;-73
2023/11/18 04:39:42;;;;;;;10.65;4.53;;;;;;;10.00;100.00;100841.81;5062836;28;20507;-73
2023/11/18 04:42:29;;;;;;;11.23;4.13;;;;;;;9.99;100.00;100834.56;5094519;28;20039;-73
2023/11/18 04:45:14;;;;;;;13.20;5.03;;;;;;;10.06;100.00;100837.06;5077671;28;20105;-72
2023/11/18 04:47:59;;;;;;;8.65;4.18;;;;;;;10.04;100.00;100836.50;5085447;28;20638;-72
2023/11/18 04:50:43;;;;;;;10.90;4.70;;;;;;;10.07;100.00;100831.22;5079731;28;20372;-73
2023/11/18 04:53:28;;;;;;;9.93;4.55;;;;;;;10.12;100.00;100848.97;5077374;28;20062;-73
2023/11/18 04:56:13;;;;;;;13.52;4.95;;;;;;;10.13;100.00;100836.75;5085815;28;20043;-73
2023/11/18 04:58:57;;;;;;;7.15;4.10;;;;;;;10.11;100.00;100848.13;5076401;28;20089;-73
2023/11/18 05:01:41;;;;;;;9.00;4.45;;;;;;;10.14;100.00;100839.25;5076856;28;20091;-73
2023/11/18 05:04:25;;;;;;;12.65;5.10;;;;;;;10.16;100.00;100837.00;5077789;28;20039;-73
2023/11/18 05:07:10;;;;;;;9.77;4.65;;;;;;;10.18;100.00;100833.97;5077210;28;20086;-73
2023/11/18 05:09:54;;;;;;;8.55;3.75;;;;;;;10.17;100.00;100835.91;5077058;28;20028;-73
2023/11/18 05:12:39;;;;;;;10.40;3.55;;;;;;;10.20;100.00;100820.66;5077119;28;20093;-73
2023/11/18 05:15:26;;;;;;;8.25;3.53;;;;;;;10.20;100.00;100820.66;5079902;28;20061;-73
2023/11/18 05:18:13;;;;;;;13.77;4.10;;;;;;;10.23;100.00;100814.53;5097113;28;20098;-73
2023/11/18 05:20:58;;;;;;;10.07;3.92;;;;;;;10.26;100.00;100819.50;5084947;28;20105;-73
2023/11/18 05:23:42;;;;;;;14.35;3.55;;;;;;;10.24;100.00;100797.56;5082502;28;20043;-73
2023/11/18 05:26:26;;;;;;;9.68;3.10;;;;;;;10.26;100.00;100798.13;5083720;28;20044;-73
2023/11/18 05:29:10;;;;;;;9.23;3.60;;;;;;;10.25;100.00;100796.47;5081019;28;20043;-73
2023/11/18 05:31:55;;;;;;;9.55;3.15;;;;;;;10.28;100.00;100795.09;5080871;28;20040;-73
2023/11/18 05:34:39;;;;;;;9.63;4.15;;;;;;;10.29;100.00;100788.44;5080570;28;20051;-73
2023/11/18 05:37:23;;;;;;;14.45;3.33;;;;;;;10.31;100.00;100782.56;5091818;28;20031;-73
2023/11/18 05:40:08;;;;;;;10.65;3.38;;;;;;;10.35;100.00;100772.56;5094999;28;20031;-73
2023/11/18 05:42:52;;;;;;;10.35;3.60;;;;;;;10.36;100.00;100786.16;5084716;28;20034;-73
2023/11/18 05:45:55;;;;;;;11.63;3.20;;;;;;;10.35;100.00;100787.28;5085438;28;20046;-73
2023/11/18 05:48:39;;;;;;;12.73;3.60;;;;;;;10.38;100.00;100785.88;5080425;28;20113;-73
2023/11/18 05:51:24;;;;;;;11.85;3.50;;;;;;;10.38;100.00;100778.38;5068827;28;20036;-73
2023/11/18 05:54:08;;;;;;;10.57;2.85;;;;;;;10.39;100.00;100784.75;5078679;28;20102;-73
2023/11/18 05:56:53;;;;;;;10.63;2.92;;;;;;;10.41;100.00;100780.56;5065105;28;20126;-73
2023/11/18 05:59:37;;;;;;;9.73;2.75;;;;;;;10.40;100.00;100772.56;5080109;28;20039;-73
2023/11/18 06:02:23;;;;;;;10.98;2.65;;;;;;;10.41;100.00;100772.25;5087003;28;20039;-73
2023/11/18 06:05:08;;;;;;;13.20;2.90;;;;;;;10.43;100.00;100771.97;5094610;28;20385;-73
2023/11/18 06:07:53;;;;;;;12.13;2.60;;;;;;;10.42;100.00;100771.16;5090247;28;20043;-73
2023/11/18 06:10:38;;;;;;;16.13;2.60;;;;;;;10.43;100.00;100769.19;5097795;28;20081;-73
2023/11/18 06:13:23;;;;;;;8.85;2.15;;;;;;;10.41;100.00;100755.59;5082003;28;20035;-73
2023/11/18 06:16:14;;;;;;;13.57;2.15;;;;;;;10.46;100.00;100758.34;5079596;28;20074;-73
2023/11/18 06:18:58;;;;;;;11.68;2.22;;;;;;;10.46;100.00;100763.06;5084895;28;20074;-73
2023/11/18 06:21:43;;;;;;;10.25;2.88;;;;;;;10.48;100.00;100763.63;5099894;28;20047;-73
2023/11/18 06:24:28;;;;;;;13.93;2.63;;;;;;;10.46;100.00;100763.88;5099956;28;20130;-73
2023/11/18 06:27:12;;;;;;;9.40;2.60;;;;;;;10.49;100.00;100768.88;5084648;28;20506;-73
2023/11/18 06:29:56;;;;;;;19.85;3.53;;;;;;;10.49;100.00;100788.31;5099847;28;20111;-73
2023/11/18 06:32:40;;;;;;;14.30;2.53;;;;;;;10.52;100.00;100790.50;5099874;28;20051;-73
2023/11/18 06:35:25;;;;;;;16.15;3.20;;;;;;;10.50;100.00;100784.44;5087761;28;20495;-74
2023/11/18 06:38:12;;;;;;;16.15;2.92;;;;;;;10.51;100.00;100786.06;5064270;28;20040;-74
2023/11/18 06:40:59;;;;;;;10.52;2.28;;;;;;;10.54;100.00;100770.78;5092476;28;20035;-73
2023/11/18 06:46:36;;;;;;;10.63;2.70;;;;;;;10.55;100.00;100761.34;5088899;28;20039;-73
2023/11/18 06:49:20;;;;;;;12.70;2.45;;;;;;;10.57;100.00;100777.72;5078423;28;20051;-74
2023/11/18 06:52:05;;;;;;;8.57;2.47;;;;;;;10.57;100.00;100770.22;5094838;28;20078;-74
2023/11/18 06:54:51;;;;;;;8.80;2.33;;;;;;;10.59;100.00;100789.38;5084025;28;20074;-74
2023/11/18 06:57:36;;;;;;;7.65;2.30;;;;;;;10.58;100.00;100782.16;5088675;28;21181;-73
2023/11/18 07:00:21;;;;;;;10.07;2.60;;;;;;;10.60;100.00;100775.19;5099041;28;20108;-73
2023/11/18 07:03:06;;;;;;;8.27;2.47;;;;;;;10.60;100.00;100782.69;5099242;28;20063;-73
2023/11/18 07:05:50;;;;;;;8.50;2.22;;;;;;;10.60;100.00;100779.91;5090012;28;20082;-73
2023/11/18 07:08:35;;;;;;;12.45;2.35;;;;;;;10.61;100.00;100760.19;5085612;28;20055;-74
2023/11/18 07:11:20;;;;;;;7.75;2.13;;;;;;;10.59;100.00;100770.75;5099022;28;20043;-74
2023/11/18 07:14:04;;;;;;;7.40;2.35;;;;;;;10.62;100.00;100780.47;5078718;28;20062;-74
2023/11/18 07:16:48;;;;;;;6.63;2.33;;;;;;;10.61;100.00;100770.47;5081372;28;20091;-73
2023/11/18 07:19:33;;;;;;;11.63;2.30;;;;;;;10.62;100.00;100775.75;5099043;28;20475;-74
2023/11/18 07:22:17;;;;;;;7.50;2.55;;;;;;;10.63;100.00;100771.84;5083806;28;20043;-73
2023/11/18 07:25:02;;;;;;;10.70;2.92;;;;;;;10.65;100.00;100757.66;5099129;28;20069;-73
2023/11/18 07:27:46;;;;;;;11.10;2.90;;;;;;;10.64;100.00;100748.50;5098645;28;20388;-74
2023/11/18 07:30:31;;;;;;;8.93;3.30;;;;;;;10.65;100.00;100743.78;5081385;28;20092;-74
2023/11/18 07:33:15;;;;;;;9.13;2.65;;;;;;;10.67;100.00;100742.38;5083292;28;20499;-73
2023/11/18 07:36:00;;;;;;;10.13;2.58;;;;;;;10.69;100.00;100750.41;5080327;28;20475;-74
2023/11/18 07:38:44;;;;;;;7.45;2.47;;;;;;;10.68;100.00;100754.31;5055121;28;20082;-73
2023/11/18 07:41:28;;;;;;;10.85;2.90;;;;;;;10.70;100.00;100757.63;5074775;28;20035;-74
2023/11/18 07:44:12;;;;;;;9.35;3.28;;;;;;;10.69;100.00;100761.50;5091867;28;20031;-74
2023/11/18 07:46:56;;;;;;;11.27;2.70;;;;;;;10.71;100.00;100760.09;5078142;28;20043;-73
2023/11/18 07:49:40;;;;;;;8.15;2.80;;;;;;;10.76;100.00;100767.59;5087247;28;20557;-73
2023/11/18 07:52:27;;;;;;;8.35;2.75;;;;;;;10.74;100.00;100764.25;5094085;28;20067;-74
2023/11/18 07:55:13;;;;;;;7.50;2.95;;;;;;;10.77;100.00;100772.00;5054628;28;20051;-74
2023/11/18 07:57:57;;;;;;;7.35;2.97;;;;;;;10.78;100.00;100770.06;5087204;28;20046;-73
2023/11/18 08:00:45;;;;;;;10.02;3.70;;;;;;;10.79;100.00;100769.78;5077728;28;20396;-73
2023/11/18 08:03:31;;;;;;;10.70;3.22;;;;;;;10.77;100.00;100754.53;5092134;28;20061;-73
2023/11/18 08:06:15;;;;;;;10.70;3.00;;;;;;;10.79;100.00;100744.78;5081201;28;20044;-73
2023/11/18 08:08:59;;;;;;;9.18;3.30;;;;;;;10.81;100.00;100750.88;5091531;28;20043;-73
2023/11/18 08:11:43;;;;;;;7.78;3.10;;;;;;;10.84;100.00;100753.09;5091220;28;20581;-73
2023/11/18 08:14:28;;;;;;;11.40;2.92;;;;;;;10.86;100.00;100752.78;5078020;28;20043;-73
2023/11/18 08:17:13;;;;;;;10.30;3.40;;;;;;;10.87;100.00;100751.69;5083955;28;20174;-74
2023/11/18 08:19:58;;;;;;;7.88;3.00;;;;;;;10.88;100.00;100751.38;5096130;28;20411;-73
2023/11/18 08:22:45;;;;;;;7.85;2.95;;;;;;;10.89;100.00;100761.38;5090195;28;20047;-73
2023/11/18 08:25:29;;;;;;;13.25;2.90;;;;;;;10.92;100.00;100755.25;5086591;28;20092;-73
2023/11/18 08:28:14;;;;;;;10.50;3.13;;;;;;;10.89;100.00;100750.28;5092829;28;20393;-74
2023/11/18 08:30:57;;;;;;;8.82;3.60;;;;;;;10.94;100.00;100746.59;5062249;28;20034;-74
2023/11/18 08:33:43;;;;;;;10.63;3.22;;;;;;;10.94;100.00;100747.41;5077491;28;20511;-74
2023/11/18 08:36:27;;;;;;;9.38;3.25;;;;;;;10.95;100.00;100754.66;5072763;28;20107;-74
2023/11/18 08:39:13;;;;;;;8.20;3.10;;;;;;;11.00;100.00;100755.72;5097339;28;20040;-74
2023/11/18 08:41:58;;;;;;;10.90;3.10;;;;;;;11.01;100.00;100751.84;5081945;28;20089;-73
2023/11/18 08:44:43;;;;;;;10.25;3.42;;;;;;;11.03;100.00;100752.34;5084496;28;20065;-73
2023/11/18 08:47:27;;;;;;;8.75;3.28;;;;;;;11.03;100.00;100742.09;5080739;28;20090;-73
2023/11/18 08:50:13;;;;;;;7.22;2.80;;;;;;;11.04;100.00;100738.19;5068698;28;20046;-74
2023/11/18 08:53:04;;;;;;;9.10;2.72;;;;;;;11.08;100.00;100741.19;5082409;28;20445;-73
2023/11/18 08:55:50;;;;;;;11.30;3.40;;;;;;;11.11;100.00;100746.16;5069475;28;20038;-73
2023/11/18 08:58:37;;;;;;;10.13;3.25;;;;;;;11.11;100.00;100740.59;5083413;28;20055;-74
2023/11/18 09:01:23;;;;;;;10.40;3.80;;;;;;;11.14;100.00;100742.81;5101437;28;20089;-75
2023/11/18 09:04:07;;;;;;;10.80;4.15;;;;;;;11.16;100.00;100743.34;5100868;28;20096;-75
2023/11/18 09:06:54;;;;;;;8.02;3.60;;;;;;;11.18;100.00;100749.44;5099697;28;20575;-74
2023/11/18 09:09:39;;;;;;;9.77;4.03;;;;;;;11.21;100.00;100737.75;5066366;28;20067;-74
2023/11/18 09:12:24;;;;;;;9.88;4.18;;;;;;;11.24;100.00;100716.88;5080887;28;20129;-74
2023/11/18 09:15:09;;;;;;;7.95;4.10;;;;;;;11.26;100.00;100726.56;5084902;28;20042;-74
2023/11/18 09:17:53;;;;;;;8.32;4.00;;;;;;;11.29;100.00;100725.16;5063349;28;20633;-74
2023/11/18 09:20:37;;;;;;;9.73;4.75;;;;;;;11.34;100.00;100739.03;5083432;28;20094;-74
2023/11/18 09:23:23;;;;;;;5.68;4.00;;;;;;;11.33;100.00;100740.94;5080992;28;20063;-74
2023/11/18 09:26:07;;;;;;;7.15;4.10;;;;;;;11.40;100.00;100732.28;5073968;28;20079;-74
2023/11/18 09:28:52;;;;;;;10.38;3.97;;;;;;;11.40;100.00;100716.41;5080546;28;20469;-74
2023/11/18 09:31:37;;;;;;;5.65;3.47;;;;;;;11.44;100.00;100721.38;5097894;28;20039;-74
2023/11/18 09:34:27;;;;;;;8.45;3.97;;;;;;;11.42;100.00;100718.88;5085378;28;20039;-74
2023/11/18 09:37:11;;;;;;;7.15;3.83;;;;;;;11.43;100.00;100731.69;5090048;28;20471;-73
2023/11/18 09:39:58;;;;;;;9.68;3.83;;;;;;;11.47;100.00;100735.53;5088399;28;20038;-77
2023/11/18 09:42:44;;;;;;;11.40;4.18;;;;;;;11.51;100.00;100721.88;5067649;28;20446;-74
2023/11/18 09:45:28;;;;;;;11.85;4.13;;;;;;;11.54;100.00;100707.38;5073118;28;20474;-74
2023/11/18 09:48:13;;;;;;;10.00;4.00;;;;;;;11.50;100.00;100692.38;5080567;28;20514;-73
2023/11/18 09:50:57;;;;;;;13.75;8.98;;;;;;;11.56;100.00;100702.31;5083084;28;20035;-73
2023/11/18 09:53:41;;;;;;;14.13;8.60;;;;;;;11.58;100.00;100725.94;5075915;28;20086;-73
2023/11/18 09:56:45;;;;;;;13.05;7.57;;;;;;;11.58;100.00;100739.84;5084412;28;20131;-73
2023/11/18 09:59:34;;;;;;;11.43;6.95;;;;;;;11.60;100.00;100736.78;5075942;28;20089;-74
2023/11/18 10:02:18;;;;;;;12.27;6.82;;;;;;;11.66;100.00;100740.34;5069552;28;20085;-74
2023/11/18 10:05:12;;;;;;;10.93;6.38;;;;;;;11.66;100.00;100751.47;5093968;28;20051;-73
2023/11/18 10:07:58;;;;;;;13.75;7.03;;;;;;;11.66;100.00;100740.34;5069936;28;20144;-74
2023/11/18 10:10:45;;;;;;;14.05;6.28;;;;;;;11.66;100.00;100746.72;5085184;28;20128;-74
2023/11/18 10:13:30;;;;;;;11.80;5.78;;;;;;;11.67;100.00;100740.03;5068021;28;20043;-74
2023/11/18 10:16:14;;;;;;;13.70;6.55;;;;;;;11.70;100.00;100750.59;5080253;28;20083;-74
2023/11/18 10:19:00;;;;;;;15.10;6.88;;;;;;;11.70;100.00;100741.38;5100198;28;20101;-74
2023/11/18 10:21:48;;;;;;;19.13;7.88;;;;;;;11.73;100.00;100757.50;5075805;28;20031;-73
2023/11/18 10:24:45;;;;;;;17.65;7.13;;;;;;;11.73;100.00;100738.88;5079800;28;20099;-73
2023/11/18 10:27:30;;;;;;;16.50;6.63;;;;;;;11.75;100.00;100744.13;5091884;28;20511;-74
2023/11/18 10:30:18;;;;;;;15.35;6.95;;;;;;;11.75;100.00;100750.50;5084772;28;20035;-74
2023/11/18 10:33:05;;;;;;;17.55;7.00;;;;;;;11.76;100.00;100749.41;5092223;28;20050;-73
2023/11/18 10:35:55;;;;;;;14.00;6.88;;;;;;;11.79;100.00;100751.59;5085705;28;20042;-73
2023/11/18 10:38:49;;;;;;;17.83;6.38;;;;;;;11.78;100.00;100749.09;5076735;28;20047;-73
2023/11/18 10:41:42;;;;;;;20.52;7.53;;;;;;;11.81;100.00;100741.00;5075349;28;20043;-73
2023/11/18 10:44:26;;;;;;;15.68;6.75;;;;;;;11.83;100.00;100760.16;5083450;28;20046;-69
2023/11/18 10:47:14;;;;;;;16.08;6.45;;;;;;;11.83;100.00;100741.50;5084139;28;20043;-70
2023/11/18 10:49:58;;;;;;;16.55;6.95;;;;;;;11.91;100.00;100728.09;5071136;28;20089;-70
2023/11/18 10:52:42;;;;;;;18.65;7.50;;;;;;;11.94;100.00;100724.72;5059056;28;20065;-70
2023/11/18 10:55:40;;;;;;;21.48;6.53;;;;;;;11.99;100.00;100727.44;5052116;28;20123;-70
2023/11/18 10:58:25;;;;;;;17.25;7.07;;;;;;;12.01;100.00;100739.13;5044755;28;20035;-72
2023/11/18 11:01:11;;;;;;;15.50;5.53;;;;;;;12.05;100.00;100740.97;5070174;28;20121;-72
2023/11/18 11:03:56;;;;;;;20.48;7.40;;;;;;;12.09;100.00;100746.81;5081838;28;20051;-72
2023/11/18 11:06:41;;;;;;;24.30;7.13;;;;;;;12.10;100.00;100745.66;5099187;28;20132;-72
2023/11/18 11:09:28;;;;;;;23.42;6.45;;;;;;;12.11;100.00;100738.97;5089230;28;20040;-72
2023/11/18 11:12:16;;;;;;;17.98;6.63;;;;;;;12.15;100.00;100737.25;5082129;28;20035;-72
2023/11/18 11:15:21;;;;;;;21.67;6.15;;;;;;;12.18;100.00;100741.41;5084186;28;20496;-72
2023/11/18 11:18:09;;;;;;;19.55;6.55;;;;;;;12.20;100.00;100726.06;5096476;28;20046;-72
2023/11/18 11:21:03;;;;;;;21.10;6.70;;;;;;;12.22;100.00;100725.72;5088690;28;20092;-72
2023/11/18 11:23:57;;;;;;;19.77;6.93;;;;;;;12.25;100.00;100723.16;5058151;28;20046;-72
2023/11/18 11:27:04;;;;;;;18.60;6.10;;;;;;;12.28;100.00;100705.03;5068114;28;20093;-72
2023/11/18 11:29:57;;;;;;;18.85;6.72;;;;;;;12.29;100.00;100704.75;5098627;28;20501;-72
2023/11/18 11:32:45;;;;;;;24.30;7.00;;;;;;;12.34;100.00;100711.34;5067451;28;20035;-72
2023/11/18 11:35:33;;;;;;;22.60;7.20;;;;;;;12.36;100.00;100709.09;5075433;28;20036;-72
2023/11/18 11:38:18;;;;;;;18.60;6.85;;;;;;;12.40;100.00;100707.41;5093023;28;20070;-72
2023/11/18 11:41:05;;;;;;;27.25;7.35;;;;;;;12.40;100.00;100702.66;5067369;28;20089;-72
2023/11/18 11:43:50;;;;;;;22.98;7.15;;;;;;;12.40;100.00;100701.81;5069336;28;20062;-72
2023/11/18 11:46:35;;;;;;;29.55;7.90;;;;;;;12.46;100.00;100693.06;5080475;28;20527;-72
2023/11/18 11:49:27;;;;;;;21.52;7.10;;;;;;;12.44;100.00;100695.31;5065755;28;20434;-72
2023/11/18 11:52:15;;;;;;;20.30;6.30;;;;;;;12.48;100.00;100703.91;5073608;28;20043;-72
2023/11/18 11:55:05;;;;;;;29.25;7.53;;;;;;;12.53;100.00;100714.97;5088184;28;20392;-72
2023/11/18 11:57:53;;;;;;;28.65;7.80;;;;;;;12.52;100.00;100707.75;5052209;28;20602;-72
2023/11/18 12:00:42;;;;;;;23.98;7.53;;;;;;;12.52;100.00;100703.00;5097387;28;20411;-72
2023/11/18 12:03:26;;;;;;;30.55;7.80;;;;;;;12.55;100.00;100707.16;5058139;28;20039;-72
2023/11/18 12:06:11;;;;;;;27.40;8.02;;;;;;;12.54;100.00;100702.72;5098064;28;20039;-72
2023/11/18 12:09:00;;;;;;;24.48;6.60;;;;;;;12.55;100.00;100706.31;5081732;28;20074;-72
2023/11/18 12:11:46;;;;;;;23.63;7.45;;;;;;;12.55;100.00;100690.44;5081459;28;20063;-72
2023/11/18 12:14:37;;;;;;;19.80;6.90;;;;;;;12.54;100.00;100669.28;5097930;28;20035;-72
2023/11/18 12:17:22;;;;;;;25.45;6.75;;;;;;;12.58;100.00;100666.72;5065267;28;20447;-72
2023/11/18 12:20:18;;;;;;;26.23;6.82;;;;;;;12.61;100.00;100669.69;5073168;28;20046;-72
2023/11/18 12:23:04;;;;;;;24.00;7.38;;;;;;;12.63;100.00;100670.22;5080642;28;20061;-72
2023/11/18 12:25:54;;;;;;;24.02;6.53;;;;;;;12.65;100.00;100672.72;5089573;28;20035;-72
2023/11/18 12:28:45;;;;;;;22.77;6.07;;;;;;;12.66;100.00;100675.19;5057616;28;20046;-72
2023/11/18 12:31:39;;;;;;;18.98;6.63;;;;;;;12.70;100.00;100673.47;5069592;28;20100;-72
2023/11/18 12:34:23;;;;;;;24.90;6.88;;;;;;;12.72;100.00;100660.03;5076966;28;20035;-72
2023/11/18 12:37:25;;;;;;;22.27;7.07;;;;;;;12.75;100.00;100656.63;5062235;28;20044;-72
2023/11/18 12:41:04;;;;;;;14.43;6.18;;;;;;;12.78;100.00;100658.00;5077184;28;20043;-72
2023/11/18 12:43:51;;;;;;;26.17;6.80;;;;;;;12.80;100.00;100652.94;5085999;28;20039;-72